createdAt,value
2022-11-17T00:02:03.079Z,21.17
2022-11-17T00:04:32.253Z,25.73
2022-11-17T00:07:02.051Z,22.30
2022-11-17T00:09:31.260Z,20.60
2022-11-17T00:12:22.315Z,30.47
2022-11-17T00:14:51.998Z,28.60
2022-11-17T00:17:20.835Z,21.77
2022-11-17T00:20:06.729Z,24.07
2022-11-17T00:22:37.190Z,21.03
2022-11-17T00:25:06.331Z,24.77
2022-11-17T00:27:35.786Z,20.00
2022-11-17T00:30:04.687Z,23.20
2022-11-17T00:32:51.507Z,20.10
2022-11-17T00:35:19.906Z,21.83
2022-11-17T00:38:04.583Z,23.23
2022-11-17T00:40:33.280Z,20.60
2022-11-17T00:43:01.708Z,24.57
2022-11-17T00:45:30.583Z,23.83
2022-11-17T00:47:59.312Z,21.70
2022-11-17T00:50:27.710Z,28.40
2022-11-17T00:52:58.057Z,20.93
2022-11-17T00:55:27.013Z,24.50
2022-11-17T00:57:55.569Z,26.40
2022-11-17T01:00:24.975Z,24.90
2022-11-17T01:02:53.991Z,28.53
2022-11-17T01:05:22.402Z,25.87
2022-11-17T01:07:51.477Z,25.20
2022-11-17T01:10:21.315Z,21.77
2022-11-17T01:12:50.622Z,19.63
2022-11-17T01:15:19.316Z,19.70
2022-11-17T01:17:48.203Z,21.23
2022-11-17T01:20:17.239Z,20.73
2022-11-17T01:22:46.225Z,18.97
2022-11-17T01:25:15.390Z,22.97
2022-11-17T01:27:45.454Z,21.53
2022-11-17T01:30:15.452Z,18.83
2022-11-17T01:32:43.991Z,19.07
2022-11-17T01:35:13.072Z,19.73
2022-11-17T01:37:41.798Z,22.10
2022-11-17T01:40:14.535Z,20.03
2022-11-17T01:42:42.971Z,19.83
2022-11-17T01:45:20.930Z,20.87
2022-11-17T01:47:51.810Z,23.63
2022-11-17T01:50:34.946Z,21.63
2022-11-17T01:53:06.878Z,20.87
2022-11-17T01:55:39.514Z,24.87
2022-11-17T01:58:12.124Z,21.97
2022-11-17T02:00:42.227Z,22.98
2022-11-17T02:03:11.658Z,23.00
2022-11-17T02:05:46.525Z,26.50
2022-11-17T02:08:17.463Z,24.77
2022-11-17T02:10:51.506Z,23.20
2022-11-17T02:13:21.920Z,24.00
2022-11-17T02:15:51.884Z,25.00
2022-11-17T02:18:21.603Z,26.87
2022-11-17T02:20:59.447Z,20.90
2022-11-17T02:24:01.741Z,25.80
2022-11-17T02:26:46.308Z,23.27
2022-11-17T02:29:22.666Z,24.47
2022-11-17T02:31:58.226Z,29.03
2022-11-17T02:34:35.349Z,22.07
2022-11-17T02:37:11.233Z,26.17
2022-11-17T02:39:45.716Z,21.37
2022-11-17T02:42:44.101Z,21.20
2022-11-17T02:45:18.272Z,21.80
2022-11-17T02:47:49.215Z,24.30
2022-11-17T02:50:26.799Z,19.30
2022-11-17T02:52:57.244Z,20.00
2022-11-17T02:55:25.784Z,20.07
2022-11-17T02:57:55.195Z,21.40
2022-11-17T03:00:25.477Z,20.53
2022-11-17T03:03:21.031Z,19.63
2022-11-17T03:05:59.669Z,18.57
2022-11-17T03:08:37.533Z,21.83
2022-11-17T03:11:08.629Z,20.03
2022-11-17T03:13:47.467Z,20.90
2022-11-17T03:16:26.781Z,19.20
2022-11-17T03:19:06.222Z,20.37
2022-11-17T03:21:39.429Z,21.10
2022-11-17T03:24:14.539Z,22.73
2022-11-17T03:26:48.677Z,20.43
2022-11-17T03:29:21.374Z,23.40
2022-11-17T03:31:58.137Z,21.87
2022-11-17T03:34:30.527Z,20.67
2022-11-17T03:37:04.699Z,18.10
2022-11-17T03:39:35.407Z,18.40
2022-11-17T03:42:09.884Z,26.17
2022-11-17T03:44:43.322Z,24.17
2022-11-17T03:47:15.568Z,22.43
2022-11-17T03:49:50.856Z,24.47
2022-11-17T03:52:20.843Z,23.30
2022-11-17T03:54:49.511Z,25.70
2022-11-17T03:57:26.409Z,22.67
2022-11-17T04:00:01.897Z,21.80
2022-11-17T04:02:43.575Z,21.20
2022-11-17T04:05:13.794Z,21.43
2022-11-17T04:07:44.562Z,22.67
2022-11-17T04:10:15.310Z,20.17
2022-11-17T04:13:01.919Z,21.73
2022-11-17T04:15:47.911Z,21.70
2022-11-17T04:18:18.059Z,20.07
2022-11-17T04:20:47.785Z,22.13
2022-11-17T04:23:17.274Z,21.10
2022-11-17T04:26:04.684Z,20.87
2022-11-17T04:28:38.412Z,18.70
2022-11-17T04:31:10.212Z,21.60
2022-11-17T04:33:41.771Z,19.83
2022-11-17T04:36:11.901Z,21.53
2022-11-17T04:38:43.046Z,22.47
2022-11-17T04:41:42.616Z,22.23
2022-11-17T04:44:13.670Z,22.40
2022-11-17T04:46:44.377Z,22.15
2022-11-17T04:49:15.354Z,22.80
2022-11-17T04:51:44.127Z,20.83
2022-11-17T04:54:15.056Z,20.53
2022-11-17T04:56:43.972Z,22.63
2022-11-17T04:59:13.354Z,21.63
2022-11-17T05:01:41.933Z,20.88
2022-11-17T05:04:12.504Z,23.95
2022-11-17T05:06:44.324Z,22.40
2022-11-17T05:09:15.180Z,23.17
2022-11-17T05:12:02.143Z,25.10
2022-11-17T05:14:31.545Z,24.90
2022-11-17T05:17:11.205Z,25.10
2022-11-17T05:19:42.648Z,27.47
2022-11-17T05:22:32.321Z,26.57
2022-11-17T05:25:00.770Z,26.03
2022-11-17T05:27:29.804Z,27.77
2022-11-17T05:29:58.649Z,24.47
2022-11-17T05:32:27.704Z,24.67
2022-11-17T05:34:56.298Z,23.27
2022-11-17T05:37:26.129Z,25.43
2022-11-17T05:39:54.923Z,23.37
2022-11-17T05:42:23.775Z,25.03
2022-11-17T05:44:52.271Z,22.70
2022-11-17T05:47:21.137Z,21.57
2022-11-17T05:49:49.559Z,23.23
2022-11-17T05:52:18.552Z,21.90
2022-11-17T05:54:48.358Z,22.40
2022-11-17T05:57:21.592Z,21.07
2022-11-17T05:59:55.451Z,21.27
2022-11-17T06:02:27.841Z,22.97
2022-11-17T06:04:57.018Z,21.87
2022-11-17T06:07:25.717Z,20.80
2022-11-17T06:09:56.046Z,20.70
2022-11-17T06:12:24.500Z,20.47
2022-11-17T06:14:53.455Z,19.40
2022-11-17T06:17:25.872Z,22.70
2022-11-17T06:19:58.330Z,17.87
2022-11-17T06:22:28.030Z,18.00
2022-11-17T06:24:59.687Z,18.77
2022-11-17T06:27:29.655Z,18.73
2022-11-17T06:30:01.650Z,20.10
2022-11-17T06:32:30.862Z,19.80
2022-11-17T06:35:00.849Z,20.33
2022-11-17T06:37:29.316Z,17.37
2022-11-17T06:39:59.659Z,19.67
2022-11-17T06:42:42.484Z,17.50
2022-11-17T06:45:12.255Z,17.90
2022-11-17T06:47:41.567Z,20.53
2022-11-17T06:50:11.697Z,19.67
2022-11-17T06:52:40.235Z,19.70
2022-11-17T06:55:11.332Z,20.47
2022-11-17T06:57:40.851Z,18.60
2022-11-17T07:00:10.943Z,21.17
2022-11-17T07:02:39.899Z,20.57
2022-11-17T07:05:08.923Z,21.27
2022-11-17T07:07:38.057Z,20.73
2022-11-17T07:10:07.319Z,19.47
2022-11-17T07:12:37.886Z,21.80
2022-11-17T07:15:07.247Z,19.67
2022-11-17T07:17:35.787Z,19.33
2022-11-17T07:20:06.009Z,18.50
2022-11-17T07:22:35.355Z,26.77
2022-11-17T07:25:04.781Z,51.10
2022-11-17T07:27:33.316Z,65.10
2022-11-17T07:30:04.905Z,41.63
2022-11-17T07:32:33.911Z,24.53
2022-11-17T07:35:05.879Z,19.93
2022-11-17T07:37:36.353Z,16.80
2022-11-17T07:40:05.853Z,21.67
2022-11-17T07:42:34.355Z,19.80
2022-11-17T07:45:10.294Z,19.90
2022-11-17T07:47:40.278Z,19.83
2022-11-17T07:50:09.389Z,20.10
2022-11-17T07:52:41.448Z,20.80
2022-11-17T07:55:11.112Z,20.60
2022-11-17T07:57:39.604Z,20.43
2022-11-17T08:00:11.639Z,19.67
2022-11-17T08:02:42.815Z,19.93
2022-11-17T08:05:11.795Z,26.53
2022-11-17T08:07:40.879Z,50.43
2022-11-17T08:10:10.154Z,23.07
2022-11-17T08:12:38.850Z,19.40
2022-11-17T08:15:09.063Z,20.53
2022-11-17T08:17:39.433Z,20.93
2022-11-17T08:20:08.901Z,19.67
2022-11-17T08:22:37.847Z,22.30
2022-11-17T08:25:07.231Z,20.37
2022-11-17T08:27:36.628Z,23.90
2022-11-17T08:30:07.666Z,124.90
2022-11-17T08:32:37.417Z,22.73
2022-11-17T08:35:08.238Z,23.88
2022-11-17T08:37:37.363Z,22.37
2022-11-17T08:40:07.173Z,21.37
2022-11-17T08:42:35.659Z,22.83
2022-11-17T08:45:04.513Z,23.43
2022-11-17T08:47:33.138Z,22.50
2022-11-17T08:50:02.118Z,20.03
2022-11-17T08:52:32.552Z,20.07
2022-11-17T08:55:02.124Z,18.57
2022-11-17T08:57:31.665Z,18.00
2022-11-17T09:00:00.209Z,19.33
2022-11-17T09:02:29.483Z,17.80
2022-11-17T09:04:58.011Z,17.17
2022-11-17T09:07:30.646Z,17.85
2022-11-17T09:10:06.518Z,16.50
2022-11-17T09:12:35.024Z,16.53
2022-11-17T09:15:03.840Z,16.30
2022-11-17T09:17:32.903Z,16.80
2022-11-17T09:20:01.630Z,16.80
2022-11-17T09:22:30.677Z,15.47
2022-11-17T09:24:59.144Z,14.80
2022-11-17T09:27:29.896Z,14.00
2022-11-17T09:29:58.393Z,14.30
2022-11-17T09:32:27.705Z,13.17
2022-11-17T09:34:56.293Z,13.97
2022-11-17T09:37:26.462Z,13.43
2022-11-17T09:39:55.466Z,13.10
2022-11-17T09:42:24.182Z,14.40
2022-11-17T09:44:58.793Z,13.60
2022-11-17T09:47:35.580Z,13.50
2022-11-17T09:50:06.763Z,13.17
2022-11-17T09:52:44.063Z,12.50
2022-11-17T09:55:29.692Z,11.90
2022-11-17T09:58:16.595Z,12.10
2022-11-17T10:00:52.154Z,9.63
2022-11-17T10:03:23.006Z,10.73
2022-11-17T10:05:53.235Z,9.47
2022-11-17T10:08:32.729Z,8.03
2022-11-17T10:11:21.773Z,7.40
2022-11-17T10:13:51.668Z,6.10
2022-11-17T10:16:21.633Z,6.63
2022-11-17T10:18:50.138Z,5.35
2022-11-17T10:21:18.606Z,6.13
2022-11-17T10:23:56.237Z,6.82
2022-11-17T10:26:25.483Z,6.65
2022-11-17T10:29:08.921Z,6.28
2022-11-17T10:31:44.374Z,6.53
2022-11-17T10:34:26.822Z,6.72
2022-11-17T10:37:03.213Z,6.70
2022-11-17T10:39:40.474Z,7.68
2022-11-17T10:42:23.240Z,7.25
2022-11-17T10:44:55.730Z,6.60
2022-11-17T10:47:32.080Z,6.97
2022-11-17T10:50:15.701Z,7.90
2022-11-17T10:52:45.153Z,7.20
2022-11-17T10:55:35.300Z,4.55
2022-11-17T10:58:19.184Z,5.60
2022-11-17T11:00:55.295Z,5.28
2022-11-17T11:03:27.375Z,5.22
2022-11-17T11:06:02.505Z,5.38
2022-11-17T11:08:39.799Z,26.65
2022-11-17T11:11:15.292Z,32.42
2022-11-17T11:13:50.475Z,19.48
2022-11-17T11:16:19.101Z,11.23
2022-11-17T11:18:50.712Z,6.28
2022-11-17T11:21:35.246Z,5.35
2022-11-17T11:24:15.562Z,4.53
2022-11-17T11:26:52.154Z,5.82
2022-11-17T11:29:31.080Z,6.38
2022-11-17T11:32:16.556Z,8.00
2022-11-17T11:35:25.501Z,13.05
2022-11-17T11:38:04.879Z,8.80
2022-11-17T11:40:38.370Z,8.27
2022-11-17T11:43:22.704Z,7.97
2022-11-17T11:46:01.402Z,7.82
2022-11-17T11:48:33.825Z,7.32
2022-11-17T11:51:06.419Z,7.65
2022-11-17T11:53:47.768Z,6.82
2022-11-17T11:56:20.884Z,5.68
2022-11-17T11:58:55.401Z,5.20
2022-11-17T12:01:25.217Z,5.82
2022-11-17T12:04:05.457Z,5.40
2022-11-17T12:06:42.088Z,5.15
2022-11-17T12:09:42.504Z,6.38
2022-11-17T12:12:17.434Z,6.80
2022-11-17T12:15:11.022Z,6.47
2022-11-17T12:17:54.886Z,8.27
2022-11-17T12:20:55.763Z,7.65
2022-11-17T12:23:35.862Z,8.02
2022-11-17T12:26:06.696Z,6.70
2022-11-17T12:28:37.301Z,5.07
2022-11-17T12:31:10.387Z,4.82
2022-11-17T12:34:26.593Z,6.05
2022-11-17T12:37:28.463Z,4.78
2022-11-17T12:40:02.663Z,5.45
2022-11-17T12:42:34.824Z,4.78
2022-11-17T12:45:08.469Z,5.68
2022-11-17T12:47:39.150Z,5.18
2022-11-17T12:50:46.685Z,5.82
2022-11-17T12:53:25.873Z,5.72
2022-11-17T12:56:25.002Z,5.97
2022-11-17T12:59:02.253Z,5.45
2022-11-17T13:01:41.027Z,5.88
2022-11-17T13:04:13.147Z,5.05
2022-11-17T13:07:00.279Z,4.57
2022-11-17T13:09:30.610Z,4.20
2022-11-17T13:12:04.321Z,4.60
2022-11-17T13:14:36.611Z,4.03
2022-11-17T13:17:05.083Z,3.95
2022-11-17T13:19:37.681Z,4.13
2022-11-17T13:22:14.655Z,3.90
2022-11-17T13:24:45.956Z,3.35
2022-11-17T13:27:22.966Z,3.50
2022-11-17T13:29:53.560Z,3.00
2022-11-17T13:32:24.828Z,2.80
2022-11-17T13:34:56.561Z,2.53
2022-11-17T13:37:27.464Z,2.42
2022-11-17T13:39:58.485Z,2.40
2022-11-17T13:42:30.851Z,2.38
2022-11-17T13:45:04.295Z,2.22
2022-11-17T13:47:46.409Z,2.92
2022-11-17T13:50:37.213Z,2.60
2022-11-17T13:53:25.841Z,2.88
2022-11-17T13:55:54.681Z,2.83
2022-11-17T13:58:38.569Z,2.67
2022-11-17T14:01:13.369Z,2.45
2022-11-17T14:03:45.098Z,1.95
2022-11-17T14:06:15.414Z,1.95
2022-11-17T14:09:02.673Z,2.03
2022-11-17T14:11:31.824Z,1.98
2022-11-17T14:14:01.338Z,1.70
2022-11-17T14:16:38.570Z,1.92
2022-11-17T14:19:26.927Z,1.70
2022-11-17T14:22:00.950Z,1.95
2022-11-17T14:24:30.045Z,2.10
2022-11-17T14:26:59.267Z,1.80
2022-11-17T14:29:29.761Z,2.28
2022-11-17T14:32:00.071Z,2.22
2022-11-17T14:34:29.005Z,2.20
2022-11-17T14:36:57.595Z,2.60
2022-11-17T14:39:26.509Z,2.60
2022-11-17T14:41:54.983Z,2.35
2022-11-17T14:44:24.103Z,3.08
2022-11-17T14:46:52.540Z,3.35
2022-11-17T14:49:22.894Z,3.10
2022-11-17T14:51:51.916Z,3.88
2022-11-17T14:54:20.357Z,4.43
2022-11-17T14:56:49.357Z,4.78
2022-11-17T14:59:18.270Z,9.27
2022-11-17T15:01:47.385Z,4.35
2022-11-17T15:04:48.169Z,4.10
2022-11-17T15:07:07.631Z,4.25
2022-11-17T15:09:36.119Z,4.45
2022-11-17T15:12:05.558Z,4.28
2022-11-17T15:14:34.444Z,4.78
2022-11-17T15:17:03.341Z,3.65
2022-11-17T15:19:32.158Z,3.90
2022-11-17T15:22:00.742Z,3.65
2022-11-17T15:24:30.594Z,3.67
2022-11-17T15:26:59.780Z,4.03
2022-11-17T15:29:28.241Z,3.40
2022-11-17T15:31:57.275Z,3.38
2022-11-17T15:34:25.807Z,3.33
2022-11-17T15:36:54.805Z,3.90
2022-11-17T15:39:23.332Z,4.50
2022-11-17T15:41:53.655Z,10.10
2022-11-17T15:44:22.582Z,27.83
2022-11-17T15:46:51.510Z,14.38
2022-11-17T15:49:20.029Z,39.53
2022-11-17T15:51:49.006Z,12.05
2022-11-17T15:54:20.824Z,12.07
2022-11-17T15:56:50.836Z,7.05
2022-11-17T15:59:20.945Z,6.88
2022-11-17T16:01:49.704Z,7.18
2022-11-17T16:04:18.625Z,7.05
2022-11-17T16:06:48.185Z,7.20
2022-11-17T16:09:17.232Z,10.88
2022-11-17T16:11:47.033Z,6.95
2022-11-17T16:14:16.351Z,6.05
2022-11-17T16:16:47.956Z,6.90
2022-11-17T16:19:17.953Z,7.10
2022-11-17T16:21:47.016Z,6.47
2022-11-17T16:24:15.948Z,6.95
2022-11-17T16:26:45.585Z,7.07
2022-11-17T16:29:14.316Z,7.60
2022-11-17T16:31:43.403Z,6.97
2022-11-17T16:34:17.877Z,8.07
2022-11-17T16:36:47.257Z,7.85
2022-11-17T16:39:19.961Z,7.28
2022-11-17T16:41:50.228Z,6.95
2022-11-17T16:44:20.277Z,6.93
2022-11-17T16:46:51.377Z,7.15
2022-11-17T16:49:21.344Z,8.85
2022-11-17T16:51:53.750Z,9.68
2022-11-17T16:54:22.805Z,10.85
2022-11-17T16:56:51.359Z,15.43
2022-11-17T16:59:20.559Z,9.90
2022-11-17T17:01:49.172Z,6.82
2022-11-17T17:04:18.394Z,7.10
2022-11-17T17:06:48.549Z,7.20
2022-11-17T17:09:19.642Z,6.72
2022-11-17T17:11:51.752Z,8.02
2022-11-17T17:14:20.274Z,8.35
2022-11-17T17:16:48.905Z,7.13
2022-11-17T17:19:19.152Z,6.85
2022-11-17T17:21:49.300Z,6.95
2022-11-17T17:24:18.209Z,7.57
2022-11-17T17:26:47.374Z,7.22
2022-11-17T17:29:15.984Z,8.65
2022-11-17T17:31:44.892Z,7.97
2022-11-17T17:34:15.396Z,15.05
2022-11-17T17:36:44.368Z,8.98
2022-11-17T17:39:16.540Z,9.90
2022-11-17T17:41:46.118Z,8.10
2022-11-17T17:44:16.772Z,8.85
2022-11-17T17:46:46.053Z,14.38
2022-11-17T17:49:16.451Z,15.80
2022-11-17T17:51:45.880Z,17.00
2022-11-17T17:54:18.507Z,21.45
2022-11-17T17:56:47.827Z,9.50
2022-11-17T17:59:17.217Z,19.17
2022-11-17T18:01:47.818Z,19.23
2022-11-17T18:04:17.579Z,40.17
2022-11-17T18:06:48.687Z,39.90
2022-11-17T18:09:20.979Z,29.98
2022-11-17T18:11:51.395Z,15.13
2022-11-17T18:14:24.279Z,11.10
2022-11-17T18:16:54.144Z,9.70
2022-11-17T18:19:27.076Z,10.60
2022-11-17T18:21:59.928Z,10.00
2022-11-17T18:24:29.858Z,10.07
2022-11-17T18:26:58.305Z,9.80
2022-11-17T18:29:27.704Z,9.60
2022-11-17T18:31:56.214Z,12.35
2022-11-17T18:34:26.478Z,9.13
2022-11-17T18:36:56.525Z,9.25
2022-11-17T18:39:27.403Z,8.35
2022-11-17T18:41:57.880Z,14.82
2022-11-17T18:44:26.439Z,15.90
2022-11-17T18:47:01.206Z,12.50
2022-11-17T18:49:31.531Z,10.55
2022-11-17T18:52:00.409Z,10.25
2022-11-17T18:54:28.925Z,10.40
2022-11-17T18:57:00.533Z,9.13
2022-11-17T18:59:29.351Z,9.10
2022-11-17T19:01:57.798Z,11.57
2022-11-17T19:04:26.283Z,8.10
2022-11-17T19:06:54.818Z,41.88
2022-11-17T19:09:23.373Z,8.98
2022-11-17T19:11:52.785Z,9.15
2022-11-17T19:14:23.719Z,11.00
2022-11-17T19:16:52.176Z,10.02
2022-11-17T19:19:21.513Z,10.35
2022-11-17T19:21:50.074Z,11.47
2022-11-17T19:24:18.599Z,9.85
2022-11-17T19:26:47.487Z,9.13
2022-11-17T19:29:17.448Z,9.25
2022-11-17T19:31:48.459Z,9.77
2022-11-17T19:34:17.373Z,8.40
2022-11-17T19:36:46.602Z,8.00
2022-11-17T19:39:17.027Z,8.85
2022-11-17T19:41:47.662Z,8.87
2022-11-17T19:44:16.822Z,7.57
2022-11-17T19:46:48.415Z,8.40
2022-11-17T19:49:17.186Z,8.55
2022-11-17T19:51:46.262Z,9.07
2022-11-17T19:54:15.629Z,11.25
2022-11-17T19:56:45.292Z,9.55
2022-11-17T19:59:16.471Z,9.50
2022-11-17T20:01:47.534Z,8.32
2022-11-17T20:04:16.478Z,7.88
2022-11-17T20:06:44.955Z,9.48
2022-11-17T20:09:15.379Z,7.07
2022-11-17T20:11:44.182Z,9.40
2022-11-17T20:14:14.398Z,7.00
2022-11-17T20:16:43.207Z,8.23
2022-11-17T20:19:14.221Z,6.95
2022-11-17T20:21:43.275Z,8.67
2022-11-17T20:24:12.743Z,6.78
2022-11-17T20:26:43.024Z,8.82
2022-11-17T20:29:11.551Z,7.68
2022-11-17T20:31:40.607Z,8.82
2022-11-17T20:34:13.828Z,9.15
2022-11-17T20:36:42.661Z,8.27
2022-11-17T20:39:11.217Z,8.90
2022-11-17T20:41:40.587Z,7.47
2022-11-17T20:44:23.769Z,7.07
2022-11-17T20:46:54.303Z,8.17
2022-11-17T20:49:24.827Z,7.32
2022-11-17T20:51:53.353Z,6.40
2022-11-17T20:54:21.853Z,6.63
2022-11-17T20:56:50.327Z,8.07
2022-11-17T20:59:20.349Z,6.67
2022-11-17T21:01:50.480Z,6.35
2022-11-17T21:04:19.430Z,6.15
2022-11-17T21:06:49.235Z,6.32
2022-11-17T21:09:18.664Z,6.68
2022-11-17T21:11:59.854Z,6.45
2022-11-17T21:14:29.255Z,6.77
2022-11-17T21:17:00.972Z,7.25
2022-11-17T21:19:31.641Z,8.52
2022-11-17T21:22:03.193Z,7.60
2022-11-17T21:24:31.636Z,7.28
2022-11-17T21:27:00.412Z,8.70
2022-11-17T21:29:29.374Z,7.75
2022-11-17T21:31:58.089Z,7.80
2022-11-17T21:34:26.522Z,8.68
2022-11-17T21:36:55.428Z,7.23
2022-11-17T21:39:25.284Z,6.53
2022-11-17T21:41:53.730Z,8.98
2022-11-17T21:44:22.453Z,8.18
2022-11-17T21:46:51.361Z,6.85
2022-11-17T21:49:19.928Z,7.73
2022-11-17T21:51:48.881Z,7.28
2022-11-17T21:54:17.580Z,6.83
2022-11-17T21:56:47.998Z,8.40
2022-11-17T21:59:18.035Z,26.33
2022-11-17T22:01:46.816Z,39.50
2022-11-17T22:04:16.642Z,23.88
2022-11-17T22:06:45.177Z,26.38
2022-11-17T22:09:14.698Z,25.58
2022-11-17T22:11:43.445Z,28.73
2022-11-17T22:14:15.243Z,20.70
2022-11-17T22:16:45.455Z,18.80
2022-11-17T22:19:15.783Z,18.40
2022-11-17T22:21:45.464Z,16.52
2022-11-17T22:24:15.234Z,16.93
2022-11-17T22:26:44.928Z,13.30
2022-11-17T22:29:17.106Z,12.73
2022-11-17T22:31:46.298Z,7.60
2022-11-17T22:34:15.453Z,8.93
2022-11-17T22:36:44.725Z,6.20
2022-11-17T22:39:13.531Z,5.30
2022-11-17T22:41:43.155Z,6.43
2022-11-17T22:44:15.727Z,5.63
2022-11-17T22:46:45.681Z,6.35
2022-11-17T22:49:14.631Z,6.60
2022-11-17T22:52:00.720Z,6.55
2022-11-17T22:54:29.202Z,4.97
2022-11-17T22:56:59.040Z,5.20
2022-11-17T22:59:30.302Z,4.38
2022-11-17T23:01:59.638Z,4.68
2022-11-17T23:04:28.912Z,4.53
2022-11-17T23:06:57.834Z,4.88
2022-11-17T23:09:26.381Z,5.03
2022-11-17T23:11:55.685Z,5.22
2022-11-17T23:14:24.106Z,4.80
2022-11-17T23:16:54.920Z,5.77
2022-11-17T23:19:24.132Z,5.43
2022-11-17T23:21:53.254Z,5.23
2022-11-17T23:24:21.886Z,6.37
2022-11-17T23:26:50.923Z,6.03
2022-11-17T23:29:20.414Z,6.10
2022-11-17T23:31:49.227Z,6.40
2022-11-17T23:34:20.123Z,4.73
2022-11-17T23:36:48.565Z,4.53
2022-11-17T23:39:18.403Z,5.00
2022-11-17T23:41:47.627Z,5.53
2022-11-17T23:44:16.945Z,5.53
2022-11-17T23:46:46.648Z,4.70
2022-11-17T23:49:16.026Z,4.53
2022-11-17T23:51:46.203Z,4.88
2022-11-17T23:54:15.307Z,5.67
2022-11-17T23:56:43.804Z,5.72
2022-11-17T23:59:12.906Z,6.90
